sensor_id;sensor_type;location;lat;lon;timestamp;temperature;humidity
38784;DHT22;24531;45.502;12.238;2023-04-19T00:00:43;17.80;76.30
38784;DHT22;24531;45.502;12.238;2023-04-19T00:03:09;17.80;76.30
38784;DHT22;24531;45.502;12.238;2023-04-19T00:05:35;17.70;76.50
38784;DHT22;24531;45.502;12.238;2023-04-19T00:08:03;17.70;76.70
38784;DHT22;24531;45.502;12.238;2023-04-19T00:10:29;17.80;76.80
38784;DHT22;24531;45.502;12.238;2023-04-19T00:12:54;17.70;76.80
38784;DHT22;24531;45.502;12.238;2023-04-19T00:15:20;17.70;76.80
38784;DHT22;24531;45.502;12.238;2023-04-19T00:17:45;17.60;76.80
38784;DHT22;24531;45.502;12.238;2023-04-19T00:20:11;17.60;77.10
38784;DHT22;24531;45.502;12.238;2023-04-19T00:22:38;17.60;77.20
38784;DHT22;24531;45.502;12.238;2023-04-19T00:25:03;17.60;77.30
38784;DHT22;24531;45.502;12.238;2023-04-19T00:27:29;17.60;77.30
38784;DHT22;24531;45.502;12.238;2023-04-19T00:29:55;17.60;77.50
38784;DHT22;24531;45.502;12.238;2023-04-19T00:32:25;17.50;77.40
38784;DHT22;24531;45.502;12.238;2023-04-19T00:34:50;17.50;77.60
38784;DHT22;24531;45.502;12.238;2023-04-19T00:37:16;17.50;77.70
38784;DHT22;24531;45.502;12.238;2023-04-19T00:39:42;17.50;77.80
38784;DHT22;24531;45.502;12.238;2023-04-19T00:42:07;17.50;78.00
38784;DHT22;24531;45.502;12.238;2023-04-19T00:44:33;17.50;78.80
38784;DHT22;24531;45.502;12.238;2023-04-19T00:46:59;17.50;78.20
38784;DHT22;24531;45.502;12.238;2023-04-19T00:49:26;17.50;78.20
38784;DHT22;24531;45.502;12.238;2023-04-19T00:51:52;17.50;78.20
38784;DHT22;24531;45.502;12.238;2023-04-19T00:54:19;17.40;78.30
38784;DHT22;24531;45.502;12.238;2023-04-19T00:56:45;17.40;78.40
38784;DHT22;24531;45.502;12.238;2023-04-19T00:59:12;17.40;78.50
38784;DHT22;24531;45.502;12.238;2023-04-19T01:01:38;17.40;78.60
38784;DHT22;24531;45.502;12.238;2023-04-19T01:04:04;17.30;78.60
38784;DHT22;24531;45.502;12.238;2023-04-19T01:06:30;17.30;78.80
38784;DHT22;24531;45.502;12.238;2023-04-19T01:08:56;17.40;78.90
38784;DHT22;24531;45.502;12.238;2023-04-19T01:11:23;17.40;79.00
38784;DHT22;24531;45.502;12.238;2023-04-19T01:13:49;17.40;79.00
38784;DHT22;24531;45.502;12.238;2023-04-19T01:16:15;17.30;79.10
38784;DHT22;24531;45.502;12.238;2023-04-19T01:18:41;17.30;79.20
38784;DHT22;24531;45.502;12.238;2023-04-19T01:21:07;17.30;79.20
38784;DHT22;24531;45.502;12.238;2023-04-19T01:23:33;17.30;79.20
38784;DHT22;24531;45.502;12.238;2023-04-19T01:26:01;17.30;80.00
38784;DHT22;24531;45.502;12.238;2023-04-19T01:28:27;17.30;79.50
38784;DHT22;24531;45.502;12.238;2023-04-19T01:30:52;17.30;79.50
38784;DHT22;24531;45.502;12.238;2023-04-19T01:33:20;17.20;79.50
38784;DHT22;24531;45.502;12.238;2023-04-19T01:35:46;17.20;79.70
38784;DHT22;24531;45.502;12.238;2023-04-19T01:38:12;17.20;80.50
38784;DHT22;24531;45.502;12.238;2023-04-19T01:40:38;17.30;79.70
38784;DHT22;24531;45.502;12.238;2023-04-19T01:43:05;17.30;79.90
38784;DHT22;24531;45.502;12.238;2023-04-19T01:45:30;17.30;80.00
38784;DHT22;24531;45.502;12.238;2023-04-19T01:47:58;17.30;80.00
38784;DHT22;24531;45.502;12.238;2023-04-19T01:50:26;17.30;80.00
38784;DHT22;24531;45.502;12.238;2023-04-19T01:52:51;17.30;80.00
38784;DHT22;24531;45.502;12.238;2023-04-19T01:55:17;17.30;80.20
38784;DHT22;24531;45.502;12.238;2023-04-19T01:57:43;17.30;80.20
38784;DHT22;24531;45.502;12.238;2023-04-19T02:00:09;17.30;81.00
38784;DHT22;24531;45.502;12.238;2023-04-19T02:02:36;17.30;80.30
38784;DHT22;24531;45.502;12.238;2023-04-19T02:05:03;17.30;80.30
38784;DHT22;24531;45.502;12.238;2023-04-19T02:07:29;17.30;80.30
38784;DHT22;24531;45.502;12.238;2023-04-19T02:09:54;17.30;80.30
38784;DHT22;24531;45.502;12.238;2023-04-19T02:12:20;17.20;80.40
38784;DHT22;24531;45.502;12.238;2023-04-19T02:14:46;17.30;80.50
38784;DHT22;24531;45.502;12.238;2023-04-19T02:17:11;17.30;80.60
38784;DHT22;24531;45.502;12.238;2023-04-19T02:19:37;17.30;80.70
38784;DHT22;24531;45.502;12.238;2023-04-19T02:22:02;17.30;80.70
38784;DHT22;24531;45.502;12.238;2023-04-19T02:24:28;17.30;80.80
38784;DHT22;24531;45.502;12.238;2023-04-19T02:26:53;17.30;80.90
38784;DHT22;24531;45.502;12.238;2023-04-19T02:29:19;17.30;81.00
38784;DHT22;24531;45.502;12.238;2023-04-19T02:31:45;17.30;81.00
38784;DHT22;24531;45.502;12.238;2023-04-19T02:34:11;17.30;81.20
38784;DHT22;24531;45.502;12.238;2023-04-19T02:36:37;17.30;82.10
38784;DHT22;24531;45.502;12.238;2023-04-19T02:39:02;17.30;81.40
38784;DHT22;24531;45.502;12.238;2023-04-19T02:41:29;17.30;81.40
38784;DHT22;24531;45.502;12.238;2023-04-19T02:43:55;17.20;81.40
38784;DHT22;24531;45.502;12.238;2023-04-19T02:46:21;17.20;81.60
38784;DHT22;24531;45.502;12.238;2023-04-19T02:48:48;17.20;81.70
38784;DHT22;24531;45.502;12.238;2023-04-19T02:51:14;17.20;81.80
38784;DHT22;24531;45.502;12.238;2023-04-19T02:53:41;17.20;81.80
38784;DHT22;24531;45.502;12.238;2023-04-19T02:56:07;17.20;81.80
38784;DHT22;24531;45.502;12.238;2023-04-19T02:58:32;17.20;81.90
38784;DHT22;24531;45.502;12.238;2023-04-19T03:00:58;17.20;81.80
38784;DHT22;24531;45.502;12.238;2023-04-19T03:03:24;17.10;81.90
38784;DHT22;24531;45.502;12.238;2023-04-19T03:05:49;17.10;81.90
38784;DHT22;24531;45.502;12.238;2023-04-19T03:08:15;17.20;82.10
38784;DHT22;24531;45.502;12.238;2023-04-19T03:10:41;17.20;82.10
38784;DHT22;24531;45.502;12.238;2023-04-19T03:13:06;17.10;82.20
38784;DHT22;24531;45.502;12.238;2023-04-19T03:15:32;17.10;82.20
38784;DHT22;24531;45.502;12.238;2023-04-19T03:17:57;17.10;82.30
38784;DHT22;24531;45.502;12.238;2023-04-19T03:20:23;17.10;82.30
38784;DHT22;24531;45.502;12.238;2023-04-19T03:22:48;17.10;82.50
38784;DHT22;24531;45.502;12.238;2023-04-19T03:25:14;17.10;82.30
38784;DHT22;24531;45.502;12.238;2023-04-19T03:27:40;17.00;82.50
38784;DHT22;24531;45.502;12.238;2023-04-19T03:30:06;16.90;82.40
38784;DHT22;24531;45.502;12.238;2023-04-19T03:32:32;16.90;82.80
38784;DHT22;24531;45.502;12.238;2023-04-19T03:34:57;17.00;82.90
38784;DHT22;24531;45.502;12.238;2023-04-19T03:37:23;16.90;82.90
38784;DHT22;24531;45.502;12.238;2023-04-19T03:39:49;16.90;83.00
38784;DHT22;24531;45.502;12.238;2023-04-19T03:42:14;16.90;83.20
38784;DHT22;24531;45.502;12.238;2023-04-19T03:44:40;16.80;83.40
38784;DHT22;24531;45.502;12.238;2023-04-19T03:47:05;16.80;83.60
38784;DHT22;24531;45.502;12.238;2023-04-19T03:49:31;16.80;83.60
38784;DHT22;24531;45.502;12.238;2023-04-19T03:51:56;16.90;83.60
38784;DHT22;24531;45.502;12.238;2023-04-19T03:54:22;16.90;83.40
38784;DHT22;24531;45.502;12.238;2023-04-19T03:56:48;17.00;83.40
38784;DHT22;24531;45.502;12.238;2023-04-19T03:59:13;16.90;83.30
38784;DHT22;24531;45.502;12.238;2023-04-19T04:01:39;17.00;83.30
38784;DHT22;24531;45.502;12.238;2023-04-19T04:04:07;17.00;83.30
38784;DHT22;24531;45.502;12.238;2023-04-19T04:06:33;17.00;83.20
38784;DHT22;24531;45.502;12.238;2023-04-19T04:08:59;17.00;83.30
38784;DHT22;24531;45.502;12.238;2023-04-19T04:11:25;17.00;83.30
38784;DHT22;24531;45.502;12.238;2023-04-19T04:13:50;17.00;83.30
38784;DHT22;24531;45.502;12.238;2023-04-19T04:16:16;17.00;83.20
38784;DHT22;24531;45.502;12.238;2023-04-19T04:18:42;17.00;83.00
38784;DHT22;24531;45.502;12.238;2023-04-19T04:21:08;17.00;83.00
38784;DHT22;24531;45.502;12.238;2023-04-19T04:23:33;17.00;82.90
38784;DHT22;24531;45.502;12.238;2023-04-19T04:26:00;17.00;82.90
38784;DHT22;24531;45.502;12.238;2023-04-19T04:28:27;17.00;82.90
38784;DHT22;24531;45.502;12.238;2023-04-19T04:30:54;17.00;82.80
38784;DHT22;24531;45.502;12.238;2023-04-19T04:33:25;17.00;82.80
38784;DHT22;24531;45.502;12.238;2023-04-19T04:35:52;16.90;82.60
38784;DHT22;24531;45.502;12.238;2023-04-19T04:38:18;16.80;82.60
38784;DHT22;24531;45.502;12.238;2023-04-19T04:40:54;16.60;83.00
38784;DHT22;24531;45.502;12.238;2023-04-19T04:43:20;16.50;83.80
38784;DHT22;24531;45.502;12.238;2023-04-19T04:45:47;16.50;83.70
38784;DHT22;24531;45.502;12.238;2023-04-19T04:48:12;16.50;83.90
38784;DHT22;24531;45.502;12.238;2023-04-19T04:50:38;16.40;83.90
38784;DHT22;24531;45.502;12.238;2023-04-19T04:53:04;16.30;84.30
38784;DHT22;24531;45.502;12.238;2023-04-19T04:55:29;16.30;84.30
38784;DHT22;24531;45.502;12.238;2023-04-19T04:57:55;16.30;84.60
38784;DHT22;24531;45.502;12.238;2023-04-19T05:00:21;16.30;84.70
38784;DHT22;24531;45.502;12.238;2023-04-19T05:02:47;16.30;85.20
38784;DHT22;24531;45.502;12.238;2023-04-19T05:05:13;16.40;85.40
38784;DHT22;24531;45.502;12.238;2023-04-19T05:07:38;16.40;85.40
38784;DHT22;24531;45.502;12.238;2023-04-19T05:10:05;16.40;85.40
38784;DHT22;24531;45.502;12.238;2023-04-19T05:12:31;16.50;85.90
38784;DHT22;24531;45.502;12.238;2023-04-19T05:14:56;16.60;86.10
38784;DHT22;24531;45.502;12.238;2023-04-19T05:17:22;16.70;86.10
38784;DHT22;24531;45.502;12.238;2023-04-19T05:19:47;16.80;86.00
38784;DHT22;24531;45.502;12.238;2023-04-19T05:22:13;16.90;86.20
38784;DHT22;24531;45.502;12.238;2023-04-19T05:24:39;16.90;86.10
38784;DHT22;24531;45.502;12.238;2023-04-19T05:27:05;17.00;86.30
38784;DHT22;24531;45.502;12.238;2023-04-19T05:29:31;17.00;86.50
38784;DHT22;24531;45.502;12.238;2023-04-19T05:31:57;17.00;86.60
38784;DHT22;24531;45.502;12.238;2023-04-19T05:34:23;17.00;86.70
38784;DHT22;24531;45.502;12.238;2023-04-19T05:36:48;17.10;86.80
38784;DHT22;24531;45.502;12.238;2023-04-19T05:39:14;17.10;86.90
38784;DHT22;24531;45.502;12.238;2023-04-19T05:41:40;17.10;86.80
38784;DHT22;24531;45.502;12.238;2023-04-19T05:44:06;17.10;86.70
38784;DHT22;24531;45.502;12.238;2023-04-19T05:46:31;17.20;86.60
38784;DHT22;24531;45.502;12.238;2023-04-19T05:48:57;17.20;87.10
38784;DHT22;24531;45.502;12.238;2023-04-19T05:51:23;17.30;86.00
38784;DHT22;24531;45.502;12.238;2023-04-19T05:53:48;17.40;85.90
38784;DHT22;24531;45.502;12.238;2023-04-19T05:56:14;17.40;85.90
38784;DHT22;24531;45.502;12.238;2023-04-19T05:58:40;17.40;85.90
38784;DHT22;24531;45.502;12.238;2023-04-19T06:01:05;17.50;86.00
38784;DHT22;24531;45.502;12.238;2023-04-19T06:03:31;17.50;86.20
38784;DHT22;24531;45.502;12.238;2023-04-19T06:06:00;17.50;86.30
38784;DHT22;24531;45.502;12.238;2023-04-19T06:08:26;17.50;86.50
38784;DHT22;24531;45.502;12.238;2023-04-19T06:10:51;17.50;86.50
38784;DHT22;24531;45.502;12.238;2023-04-19T06:13:18;17.50;86.50
38784;DHT22;24531;45.502;12.238;2023-04-19T06:15:46;17.50;86.40
38784;DHT22;24531;45.502;12.238;2023-04-19T06:18:11;17.60;86.40
38784;DHT22;24531;45.502;12.238;2023-04-19T06:20:38;17.70;86.50
38784;DHT22;24531;45.502;12.238;2023-04-19T06:23:04;17.70;86.50
38784;DHT22;24531;45.502;12.238;2023-04-19T06:25:30;17.80;86.50
38784;DHT22;24531;45.502;12.238;2023-04-19T06:27:55;17.80;86.50
38784;DHT22;24531;45.502;12.238;2023-04-19T06:30:21;17.90;86.30
38784;DHT22;24531;45.502;12.238;2023-04-19T06:32:47;17.90;86.10
38784;DHT22;24531;45.502;12.238;2023-04-19T06:35:13;17.90;86.00
38784;DHT22;24531;45.502;12.238;2023-04-19T06:37:39;18.00;85.90
38784;DHT22;24531;45.502;12.238;2023-04-19T06:40:05;18.00;85.70
38784;DHT22;24531;45.502;12.238;2023-04-19T06:42:33;18.10;85.60
38784;DHT22;24531;45.502;12.238;2023-04-19T06:44:58;18.10;85.30
38784;DHT22;24531;45.502;12.238;2023-04-19T06:47:24;18.20;85.30
38784;DHT22;24531;45.502;12.238;2023-04-19T06:49:49;18.60;85.70
38784;DHT22;24531;45.502;12.238;2023-04-19T06:52:15;19.10;85.20
38784;DHT22;24531;45.502;12.238;2023-04-19T06:54:41;19.60;84.70
38784;DHT22;24531;45.502;12.238;2023-04-19T06:57:06;20.10;84.00
38784;DHT22;24531;45.502;12.238;2023-04-19T06:59:32;20.30;83.20
38784;DHT22;24531;45.502;12.238;2023-04-19T07:01:58;20.60;82.50
38784;DHT22;24531;45.502;12.238;2023-04-19T07:04:25;20.80;81.80
38784;DHT22;24531;45.502;12.238;2023-04-19T07:06:51;21.00;81.20
38784;DHT22;24531;45.502;12.238;2023-04-19T07:09:16;21.30;80.60
38784;DHT22;24531;45.502;12.238;2023-04-19T07:11:42;21.50;79.80
38784;DHT22;24531;45.502;12.238;2023-04-19T07:14:08;21.70;79.10
38784;DHT22;24531;45.502;12.238;2023-04-19T07:16:33;21.70;78.40
38784;DHT22;24531;45.502;12.238;2023-04-19T07:18:59;21.80;78.80
38784;DHT22;24531;45.502;12.238;2023-04-19T07:21:24;22.00;78.00
38784;DHT22;24531;45.502;12.238;2023-04-19T07:23:53;22.30;77.20
38784;DHT22;24531;45.502;12.238;2023-04-19T07:26:18;22.50;76.20
38784;DHT22;24531;45.502;12.238;2023-04-19T07:28:44;22.70;75.60
38784;DHT22;24531;45.502;12.238;2023-04-19T07:31:14;22.90;75.10
38784;DHT22;24531;45.502;12.238;2023-04-19T07:33:41;23.00;75.30
38784;DHT22;24531;45.502;12.238;2023-04-19T07:36:07;23.00;73.80
38784;DHT22;24531;45.502;12.238;2023-04-19T07:38:33;22.60;72.80
38784;DHT22;24531;45.502;12.238;2023-04-19T07:40:59;22.40;73.10
38784;DHT22;24531;45.502;12.238;2023-04-19T07:43:25;22.20;74.30
38784;DHT22;24531;45.502;12.238;2023-04-19T07:45:51;22.10;73.80
38784;DHT22;24531;45.502;12.238;2023-04-19T07:48:17;22.10;74.40
38784;DHT22;24531;45.502;12.238;2023-04-19T07:50:43;22.50;75.20
38784;DHT22;24531;45.502;12.238;2023-04-19T07:53:08;22.90;73.50
38784;DHT22;24531;45.502;12.238;2023-04-19T07:55:35;23.30;73.50
38784;DHT22;24531;45.502;12.238;2023-04-19T07:58:01;23.80;73.00
38784;DHT22;24531;45.502;12.238;2023-04-19T08:00:27;24.20;71.70
38784;DHT22;24531;45.502;12.238;2023-04-19T08:02:55;24.60;70.80
38784;DHT22;24531;45.502;12.238;2023-04-19T08:05:21;25.00;69.60
38784;DHT22;24531;45.502;12.238;2023-04-19T08:07:49;25.40;68.50
38784;DHT22;24531;45.502;12.238;2023-04-19T08:10:17;25.90;67.30
38784;DHT22;24531;45.502;12.238;2023-04-19T08:12:43;25.90;65.80
38784;DHT22;24531;45.502;12.238;2023-04-19T08:15:09;25.40;65.70
38784;DHT22;24531;45.502;12.238;2023-04-19T08:17:35;25.30;66.80
38784;DHT22;24531;45.502;12.238;2023-04-19T08:20:00;25.60;66.30
38784;DHT22;24531;45.502;12.238;2023-04-19T08:22:26;26.30;65.80
38784;DHT22;24531;45.502;12.238;2023-04-19T08:24:52;26.50;64.70
38784;DHT22;24531;45.502;12.238;2023-04-19T08:27:18;26.90;64.40
38784;DHT22;24531;45.502;12.238;2023-04-19T08:29:44;27.80;63.60
38784;DHT22;24531;45.502;12.238;2023-04-19T08:32:11;28.70;62.50
38784;DHT22;24531;45.502;12.238;2023-04-19T08:34:38;29.60;60.20
38784;DHT22;24531;45.502;12.238;2023-04-19T08:37:05;30.20;58.90
38784;DHT22;24531;45.502;12.238;2023-04-19T08:39:32;30.60;57.90
38784;DHT22;24531;45.502;12.238;2023-04-19T08:42:06;31.00;56.90
38784;DHT22;24531;45.502;12.238;2023-04-19T08:44:32;31.10;55.80
38784;DHT22;24531;45.502;12.238;2023-04-19T08:46:59;31.50;55.80
38784;DHT22;24531;45.502;12.238;2023-04-19T08:49:26;31.80;55.00
38784;DHT22;24531;45.502;12.238;2023-04-19T08:51:52;31.90;55.40
38784;DHT22;24531;45.502;12.238;2023-04-19T08:54:19;32.20;54.90
38784;DHT22;24531;45.502;12.238;2023-04-19T08:56:46;32.80;54.50
38784;DHT22;24531;45.502;12.238;2023-04-19T08:59:11;32.70;53.80
38784;DHT22;24531;45.502;12.238;2023-04-19T09:01:38;32.70;53.80
38784;DHT22;24531;45.502;12.238;2023-04-19T09:04:05;32.80;53.20
38784;DHT22;24531;45.502;12.238;2023-04-19T09:06:38;33.30;52.90
38784;DHT22;24531;45.502;12.238;2023-04-19T09:11:43;33.30;51.10
38784;DHT22;24531;45.502;12.238;2023-04-19T09:14:10;33.30;51.30
38784;DHT22;24531;45.502;12.238;2023-04-19T09:16:37;33.50;50.70
38784;DHT22;24531;45.502;12.238;2023-04-19T09:19:04;33.80;51.00
38784;DHT22;24531;45.502;12.238;2023-04-19T09:21:30;34.30;51.00
38784;DHT22;24531;45.502;12.238;2023-04-19T09:23:57;35.10;50.10
38784;DHT22;24531;45.502;12.238;2023-04-19T09:26:23;35.30;48.70
38784;DHT22;24531;45.502;12.238;2023-04-19T09:28:58;35.40;48.90
38784;DHT22;24531;45.502;12.238;2023-04-19T09:31:26;35.90;48.70
38784;DHT22;24531;45.502;12.238;2023-04-19T09:33:53;36.20;47.90
38784;DHT22;24531;45.502;12.238;2023-04-19T09:36:32;35.50;46.40
38784;DHT22;24531;45.502;12.238;2023-04-19T09:38:58;33.40;46.10
38784;DHT22;24531;45.502;12.238;2023-04-19T09:41:25;31.50;47.70
38784;DHT22;24531;45.502;12.238;2023-04-19T09:43:51;30.00;49.10
38784;DHT22;24531;45.502;12.238;2023-04-19T09:46:30;29.10;50.30
38784;DHT22;24531;45.502;12.238;2023-04-19T09:51:57;27.80;51.90
38784;DHT22;24531;45.502;12.238;2023-04-19T09:54:24;27.20;52.30
38784;DHT22;24531;45.502;12.238;2023-04-19T09:56:53;26.90;52.90
38784;DHT22;24531;45.502;12.238;2023-04-19T09:59:18;27.00;53.70
38784;DHT22;24531;45.502;12.238;2023-04-19T10:01:54;28.60;53.60
38784;DHT22;24531;45.502;12.238;2023-04-19T10:04:24;30.60;52.20
38784;DHT22;24531;45.502;12.238;2023-04-19T10:06:52;32.00;50.60
38784;DHT22;24531;45.502;12.238;2023-04-19T10:09:19;32.10;48.80
38784;DHT22;24531;45.502;12.238;2023-04-19T10:11:52;31.10;49.30
38784;DHT22;24531;45.502;12.238;2023-04-19T10:14:22;29.80;49.60
38784;DHT22;24531;45.502;12.238;2023-04-19T10:16:52;28.70;50.70
38784;DHT22;24531;45.502;12.238;2023-04-19T10:19:20;27.80;51.20
38784;DHT22;24531;45.502;12.238;2023-04-19T10:21:47;27.20;52.80
38784;DHT22;24531;45.502;12.238;2023-04-19T10:24:14;26.70;52.50
38784;DHT22;24531;45.502;12.238;2023-04-19T10:27:06;26.30;52.90
38784;DHT22;24531;45.502;12.238;2023-04-19T10:30:00;26.10;53.80
38784;DHT22;24531;45.502;12.238;2023-04-19T10:32:41;25.80;54.10
38784;DHT22;24531;45.502;12.238;2023-04-19T10:35:16;25.60;54.10
38784;DHT22;24531;45.502;12.238;2023-04-19T10:38:05;25.30;54.30
38784;DHT22;24531;45.502;12.238;2023-04-19T10:43:16;24.70;54.50
38784;DHT22;24531;45.502;12.238;2023-04-19T10:45:43;24.80;55.00
38784;DHT22;24531;45.502;12.238;2023-04-19T10:51:10;24.40;55.40
38784;DHT22;24531;45.502;12.238;2023-04-19T10:53:43;24.40;55.80
38784;DHT22;24531;45.502;12.238;2023-04-19T10:56:09;24.20;56.00
38784;DHT22;24531;45.502;12.238;2023-04-19T11:01:58;23.90;56.50
38784;DHT22;24531;45.502;12.238;2023-04-19T11:09:39;24.50;56.30
38784;DHT22;24531;45.502;12.238;2023-04-19T11:12:07;24.30;56.50
38784;DHT22;24531;45.502;12.238;2023-04-19T11:14:34;24.20;56.60
38784;DHT22;24531;45.502;12.238;2023-04-19T11:17:13;24.10;56.50
38784;DHT22;24531;45.502;12.238;2023-04-19T11:19:42;24.00;56.70
38784;DHT22;24531;45.502;12.238;2023-04-19T11:22:08;23.90;57.50
38784;DHT22;24531;45.502;12.238;2023-04-19T11:24:34;23.80;57.00
38784;DHT22;24531;45.502;12.238;2023-04-19T11:26:59;23.70;57.20
38784;DHT22;24531;45.502;12.238;2023-04-19T11:29:25;23.70;57.40
38784;DHT22;24531;45.502;12.238;2023-04-19T11:31:51;23.60;57.40
38784;DHT22;24531;45.502;12.238;2023-04-19T11:34:21;23.50;57.60
38784;DHT22;24531;45.502;12.238;2023-04-19T11:36:48;23.50;57.70
38784;DHT22;24531;45.502;12.238;2023-04-19T11:39:14;23.40;57.60
38784;DHT22;24531;45.502;12.238;2023-04-19T11:41:40;23.40;57.70
38784;DHT22;24531;45.502;12.238;2023-04-19T11:44:16;23.20;57.60
38784;DHT22;24531;45.502;12.238;2023-04-19T11:46:57;23.20;57.50
38784;DHT22;24531;45.502;12.238;2023-04-19T11:49:32;23.00;58.20
38784;DHT22;24531;45.502;12.238;2023-04-19T11:51:59;22.90;58.20
38784;DHT22;24531;45.502;12.238;2023-04-19T11:54:25;22.90;57.70
38784;DHT22;24531;45.502;12.238;2023-04-19T11:59:23;22.80;58.00
38784;DHT22;24531;45.502;12.238;2023-04-19T12:01:49;22.80;58.00
38784;DHT22;24531;45.502;12.238;2023-04-19T12:04:14;22.80;58.00
38784;DHT22;24531;45.502;12.238;2023-04-19T12:06:40;22.80;57.80
38784;DHT22;24531;45.502;12.238;2023-04-19T12:09:07;22.80;57.60
38784;DHT22;24531;45.502;12.238;2023-04-19T12:11:45;22.80;57.50
38784;DHT22;24531;45.502;12.238;2023-04-19T12:14:16;22.90;57.60
38784;DHT22;24531;45.502;12.238;2023-04-19T12:16:44;23.00;57.40
38784;DHT22;24531;45.502;12.238;2023-04-19T12:19:14;23.00;57.30
38784;DHT22;24531;45.502;12.238;2023-04-19T12:21:42;23.10;57.20
38784;DHT22;24531;45.502;12.238;2023-04-19T12:24:08;23.20;57.20
38784;DHT22;24531;45.502;12.238;2023-04-19T12:26:34;23.20;57.40
38784;DHT22;24531;45.502;12.238;2023-04-19T12:29:01;23.10;57.60
38784;DHT22;24531;45.502;12.238;2023-04-19T12:31:27;22.90;57.30
38784;DHT22;24531;45.502;12.238;2023-04-19T12:33:54;22.90;57.30
38784;DHT22;24531;45.502;12.238;2023-04-19T12:36:20;22.90;57.50
38784;DHT22;24531;45.502;12.238;2023-04-19T12:38:45;22.90;56.80
38784;DHT22;24531;45.502;12.238;2023-04-19T12:41:11;22.90;57.10
38784;DHT22;24531;45.502;12.238;2023-04-19T12:43:37;23.00;57.20
38784;DHT22;24531;45.502;12.238;2023-04-19T12:46:03;22.90;57.70
38784;DHT22;24531;45.502;12.238;2023-04-19T12:48:29;23.00;57.40
38784;DHT22;24531;45.502;12.238;2023-04-19T12:50:54;22.90;57.10
38784;DHT22;24531;45.502;12.238;2023-04-19T12:53:20;23.00;57.20
38784;DHT22;24531;45.502;12.238;2023-04-19T12:55:48;23.00;57.10
38784;DHT22;24531;45.502;12.238;2023-04-19T12:58:15;23.10;57.30
38784;DHT22;24531;45.502;12.238;2023-04-19T13:00:41;23.20;56.40
38784;DHT22;24531;45.502;12.238;2023-04-19T13:03:07;23.40;56.30
38784;DHT22;24531;45.502;12.238;2023-04-19T13:05:33;23.60;56.40
38784;DHT22;24531;45.502;12.238;2023-04-19T13:07:58;23.80;56.20
38784;DHT22;24531;45.502;12.238;2023-04-19T13:10:24;23.90;56.20
38784;DHT22;24531;45.502;12.238;2023-04-19T13:12:50;23.80;56.30
38784;DHT22;24531;45.502;12.238;2023-04-19T13:15:16;23.50;57.00
38784;DHT22;24531;45.502;12.238;2023-04-19T13:17:42;23.40;56.70
38784;DHT22;24531;45.502;12.238;2023-04-19T13:20:08;23.30;56.60
38784;DHT22;24531;45.502;12.238;2023-04-19T13:22:34;23.10;56.70
38784;DHT22;24531;45.502;12.238;2023-04-19T13:24:59;23.00;57.10
38784;DHT22;24531;45.502;12.238;2023-04-19T13:27:25;23.00;57.40
38784;DHT22;24531;45.502;12.238;2023-04-19T13:29:54;23.00;57.50
38784;DHT22;24531;45.502;12.238;2023-04-19T13:32:20;23.10;57.50
38784;DHT22;24531;45.502;12.238;2023-04-19T13:34:46;23.20;57.30
38784;DHT22;24531;45.502;12.238;2023-04-19T13:37:12;23.20;57.30
38784;DHT22;24531;45.502;12.238;2023-04-19T13:39:37;23.10;57.30
38784;DHT22;24531;45.502;12.238;2023-04-19T13:42:03;23.10;57.20
38784;DHT22;24531;45.502;12.238;2023-04-19T13:44:29;23.20;57.10
38784;DHT22;24531;45.502;12.238;2023-04-19T13:46:55;23.10;57.00
38784;DHT22;24531;45.502;12.238;2023-04-19T13:49:21;23.20;57.30
38784;DHT22;24531;45.502;12.238;2023-04-19T13:51:46;23.30;57.00
38784;DHT22;24531;45.502;12.238;2023-04-19T13:54:12;23.40;56.70
38784;DHT22;24531;45.502;12.238;2023-04-19T13:56:38;23.40;56.70
38784;DHT22;24531;45.502;12.238;2023-04-19T13:59:03;23.40;56.70
38784;DHT22;24531;45.502;12.238;2023-04-19T14:01:29;23.40;56.60
38784;DHT22;24531;45.502;12.238;2023-04-19T14:03:54;23.40;56.70
38784;DHT22;24531;45.502;12.238;2023-04-19T14:06:20;23.40;56.70
38784;DHT22;24531;45.502;12.238;2023-04-19T14:08:46;23.30;56.70
38784;DHT22;24531;45.502;12.238;2023-04-19T14:11:11;23.20;56.80
38784;DHT22;24531;45.502;12.238;2023-04-19T14:13:37;23.00;57.10
38784;DHT22;24531;45.502;12.238;2023-04-19T14:16:03;22.90;57.40
38784;DHT22;24531;45.502;12.238;2023-04-19T14:18:28;22.90;57.50
38784;DHT22;24531;45.502;12.238;2023-04-19T14:20:54;22.80;57.50
38784;DHT22;24531;45.502;12.238;2023-04-19T14:23:20;22.80;57.60
38784;DHT22;24531;45.502;12.238;2023-04-19T14:25:46;22.80;57.60
38784;DHT22;24531;45.502;12.238;2023-04-19T14:28:12;22.80;57.50
38784;DHT22;24531;45.502;12.238;2023-04-19T14:30:38;23.00;57.30
38784;DHT22;24531;45.502;12.238;2023-04-19T14:33:04;23.00;56.90
38784;DHT22;24531;45.502;12.238;2023-04-19T14:35:29;22.90;56.80
38784;DHT22;24531;45.502;12.238;2023-04-19T14:37:55;22.80;57.10
38784;DHT22;24531;45.502;12.238;2023-04-19T14:40:21;22.80;58.00
38784;DHT22;24531;45.502;12.238;2023-04-19T14:42:47;22.80;57.40
38784;DHT22;24531;45.502;12.238;2023-04-19T14:45:12;23.00;57.40
38784;DHT22;24531;45.502;12.238;2023-04-19T14:47:38;23.20;57.30
38784;DHT22;24531;45.502;12.238;2023-04-19T14:50:04;23.30;57.30
38784;DHT22;24531;45.502;12.238;2023-04-19T14:52:30;23.40;57.50
38784;DHT22;24531;45.502;12.238;2023-04-19T14:54:55;23.50;57.30
38784;DHT22;24531;45.502;12.238;2023-04-19T14:57:22;23.60;57.40
38784;DHT22;24531;45.502;12.238;2023-04-19T14:59:48;23.70;57.00
38784;DHT22;24531;45.502;12.238;2023-04-19T15:02:13;23.80;56.90
38784;DHT22;24531;45.502;12.238;2023-04-19T15:04:39;23.90;56.60
38784;DHT22;24531;45.502;12.238;2023-04-19T15:07:05;23.90;56.30
38784;DHT22;24531;45.502;12.238;2023-04-19T15:09:31;24.00;56.10
38784;DHT22;24531;45.502;12.238;2023-04-19T15:11:56;24.00;55.80
38784;DHT22;24531;45.502;12.238;2023-04-19T15:14:22;24.00;55.70
38784;DHT22;24531;45.502;12.238;2023-04-19T15:16:48;24.00;55.60
38784;DHT22;24531;45.502;12.238;2023-04-19T15:19:14;23.90;55.70
38784;DHT22;24531;45.502;12.238;2023-04-19T15:21:39;24.00;55.90
38784;DHT22;24531;45.502;12.238;2023-04-19T15:24:05;24.00;55.70
38784;DHT22;24531;45.502;12.238;2023-04-19T15:26:33;23.90;55.60
38784;DHT22;24531;45.502;12.238;2023-04-19T15:28:59;23.70;55.70
38784;DHT22;24531;45.502;12.238;2023-04-19T15:31:24;23.40;56.00
38784;DHT22;24531;45.502;12.238;2023-04-19T15:33:50;23.10;56.20